aviador You're here:

LQSA Decoded Metar

SARAJEVO in BOSNIA-HERCEGOVINA
Report Time2017-12-16 16:30:00
UTC Time2017-12-16 16:46:45
Flight Rules vfr VFR
Wind300° at 07 kt
W.Decomp.*RWY 30: 7.0 kt HW 0.2 kt LCW
W.Rank300° ranks 2
Current wind is above 300° avg. (4.9)
Visibility9999 m
Phenomena:N/A
Clouds:Few 020 Hf
Broken 035 Hf
Expected CloudBase > 800 ft AGL from Temp-Dew spread
Ceiling3,500 ft
Temp04°C (ISA -8)
Dew Point02°C (87% RH)
AAT-0.2°C
QNH1008 hPa
Density Alt1,024 ft
Elevation1,677 ft
Report Wrong Elevation
Raw Report
LQSA 161630Z 30007KT 9999 FEW020 BKN035 04/02 Q1008 NOSIG=

Extra information for LQSA:More info

Metar Taf Metar & Taf Last 4 Metars F.Rules Stats Wind Profile Meteogram Temp Stats Airport Information Weather charts Add Link Nearby VenuesMetar ALERT Operation Metar Decoded Social comments